createdAt,value
2018-04-28T00:00:51.298Z,14.10
2018-04-28T00:03:19.667Z,14.20
2018-04-28T00:05:48.069Z,14.20
2018-04-28T00:08:17.785Z,14.30
2018-04-28T00:10:46.180Z,14.30
2018-04-28T00:13:14.557Z,14.30
2018-04-28T00:15:43.304Z,14.40
2018-04-28T00:18:11.673Z,14.30
2018-04-28T00:20:40.059Z,14.20
2018-04-28T00:23:13.093Z,14.10
2018-04-28T00:26:04.608Z,14.00
2018-04-28T00:28:43.068Z,13.90
2018-04-28T00:34:21.660Z,13.90
2018-04-28T00:40:14.647Z,13.90
2018-04-28T00:42:46.252Z,13.80
2018-04-28T00:45:42.269Z,13.80
2018-04-28T00:48:15.457Z,13.80
2018-04-28T00:51:00.222Z,13.90
2018-04-28T00:53:28.621Z,13.90
2018-04-28T00:55:56.997Z,14.00
2018-04-28T00:58:38.228Z,13.90
2018-04-28T01:01:27.830Z,13.80
2018-04-28T01:04:03.096Z,13.80
2018-04-28T01:06:31.469Z,13.80
2018-04-28T01:08:59.864Z,13.60
2018-04-28T01:11:31.711Z,13.50
2018-04-28T01:17:18.256Z,13.50
2018-04-28T01:19:56.434Z,13.50
2018-04-28T01:22:36.632Z,13.50
2018-04-28T01:25:11.509Z,13.50
2018-04-28T01:27:59.547Z,13.50
2018-04-28T01:31:00.577Z,13.40
2018-04-28T01:33:35.365Z,13.40
2018-04-28T01:39:12.260Z,13.40
2018-04-28T01:44:41.824Z,13.40
2018-04-28T01:47:20.602Z,13.00
2018-04-28T01:49:56.794Z,13.00
2018-04-28T01:52:30.450Z,13.10
2018-04-28T01:55:04.312Z,13.00
2018-04-28T02:04:11.129Z,13.00
2018-04-28T02:06:55.568Z,12.90
2018-04-28T02:09:23.983Z,12.90
2018-04-28T02:14:52.705Z,12.80
2018-04-28T02:17:21.115Z,12.70
2018-04-28T02:20:09.789Z,12.50
2018-04-28T02:22:47.533Z,12.50
2018-04-28T02:25:21.164Z,12.50
2018-04-28T02:28:05.165Z,12.50
2018-04-28T02:31:04.901Z,12.60
2018-04-28T02:33:35.874Z,12.60
2018-04-28T02:36:21.037Z,12.70
2018-04-28T02:38:57.868Z,12.60
2018-04-28T02:44:31.228Z,12.60
2018-04-28T02:47:07.474Z,12.50
2018-04-28T02:49:42.344Z,12.50
2018-04-28T02:55:39.621Z,12.50
2018-04-28T02:58:20.114Z,12.50
2018-04-28T03:01:00.185Z,12.40
2018-04-28T03:03:33.372Z,12.40
2018-04-28T03:06:03.552Z,12.30
2018-04-28T03:08:50.377Z,12.20
2018-04-28T03:11:34.170Z,12.20
2018-04-28T03:14:02.577Z,12.20
2018-04-28T03:19:26.178Z,12.10
2018-04-28T03:21:55.319Z,12.10
2018-04-28T03:24:47.346Z,12.10
2018-04-28T03:30:19.516Z,12.10
2018-04-28T03:32:51.456Z,12.10
2018-04-28T03:35:24.729Z,11.90
2018-04-28T03:38:10.601Z,11.90
2018-04-28T03:40:46.572Z,11.80
2018-04-28T03:43:24.380Z,11.80
2018-04-28T03:46:17.842Z,11.80
2018-04-28T03:48:49.521Z,11.90
2018-04-28T03:51:29.153Z,11.80
2018-04-28T03:54:05.981Z,11.90
2018-04-28T04:00:08.604Z,11.90
2018-04-28T04:02:54.844Z,11.90
2018-04-28T04:08:55.477Z,12.10
2018-04-28T04:11:41.848Z,12.10
2018-04-28T04:14:21.865Z,12.10
2018-04-28T04:20:28.717Z,12.20
2018-04-28T04:26:47.822Z,12.30
2018-04-28T04:29:29.293Z,12.30
2018-04-28T04:32:15.739Z,12.40
2018-04-28T04:34:57.011Z,12.40
2018-04-28T04:37:35.062Z,12.40
2018-04-28T04:40:13.232Z,12.50
2018-04-28T04:42:59.412Z,12.50
2018-04-28T04:45:38.692Z,12.50
2018-04-28T04:48:21.926Z,12.50
2018-04-28T04:51:02.552Z,12.60
2018-04-28T04:53:40.309Z,12.60
2018-04-28T05:02:53.245Z,12.60
2018-04-28T05:05:45.120Z,12.70
2018-04-28T05:08:31.348Z,12.70
2018-04-28T05:14:29.154Z,12.90
2018-04-28T05:20:29.833Z,13.20
2018-04-28T05:29:41.757Z,13.50
2018-04-28T05:35:28.957Z,13.70
2018-04-28T05:38:12.021Z,13.80
2018-04-28T05:44:04.335Z,14.10
2018-04-28T05:46:41.330Z,14.20
2018-04-28T05:52:21.477Z,14.50
2018-04-28T05:54:57.247Z,14.60
2018-04-28T06:00:51.952Z,14.80
2018-04-28T06:07:00.332Z,15.00
2018-04-28T06:13:05.964Z,15.10
2018-04-28T06:16:05.641Z,15.10
2018-04-28T06:18:45.112Z,15.40
2018-04-28T06:21:13.521Z,15.40
2018-04-28T06:23:42.081Z,15.50
2018-04-28T06:26:10.461Z,15.60
2018-04-28T06:28:38.872Z,15.70
2018-04-28T06:31:07.280Z,15.80
2018-04-28T06:33:36.420Z,15.90
2018-04-28T06:36:04.915Z,15.90
2018-04-28T06:38:33.241Z,16.00
2018-04-28T06:41:01.969Z,16.20
2018-04-28T06:43:30.345Z,16.30
2018-04-28T06:45:58.853Z,16.40
2018-04-28T06:48:28.750Z,16.60
2018-04-28T06:50:57.174Z,16.60
2018-04-28T06:53:26.325Z,16.80
2018-04-28T06:55:54.704Z,16.90
2018-04-28T06:58:23.390Z,17.00
2018-04-28T07:00:51.789Z,17.10
2018-04-28T07:03:20.169Z,17.30
2018-04-28T07:05:48.576Z,17.50
2018-04-28T07:08:16.957Z,17.70
2018-04-28T07:10:45.433Z,17.80
2018-04-28T07:13:14.572Z,18.20
2018-04-28T07:15:43.250Z,18.10
2018-04-28T07:18:11.873Z,18.30
2018-04-28T07:20:44.135Z,18.40
2018-04-28T07:23:13.524Z,18.60
2018-04-28T07:25:50.750Z,18.60
2018-04-28T07:28:27.386Z,18.80
2018-04-28T07:31:04.625Z,18.80
2018-04-28T07:33:33.202Z,18.80
2018-04-28T07:36:03.237Z,18.90
2018-04-28T07:38:37.408Z,18.90
2018-04-28T07:41:06.452Z,19.10
2018-04-28T07:43:41.393Z,19.10
2018-04-28T07:46:17.714Z,19.20
2018-04-28T07:48:55.186Z,19.50
2018-04-28T07:51:33.343Z,19.80
2018-04-28T07:54:06.780Z,19.80
2018-04-28T07:56:35.624Z,19.90
2018-04-28T07:59:04.001Z,20.10
2018-04-28T08:01:32.376Z,20.30
2018-04-28T08:04:01.614Z,20.40
2018-04-28T08:06:31.133Z,20.70
2018-04-28T08:09:00.321Z,20.90
2018-04-28T08:11:29.196Z,20.90
2018-04-28T08:13:58.083Z,21.10
2018-04-28T08:16:27.054Z,21.30
2018-04-28T08:18:55.456Z,21.50
2018-04-28T08:21:23.853Z,21.60
2018-04-28T08:24:00.583Z,21.80
2018-04-28T08:26:34.236Z,21.90
2018-04-28T08:29:03.700Z,22.20
2018-04-28T08:31:37.431Z,22.20
2018-04-28T08:34:06.908Z,22.40
2018-04-28T08:36:41.641Z,22.40
2018-04-28T08:39:16.932Z,22.50
2018-04-28T08:41:54.582Z,22.70
2018-04-28T08:44:27.545Z,22.80
2018-04-28T08:46:59.797Z,22.90
2018-04-28T08:49:29.965Z,22.90
2018-04-28T08:51:58.377Z,23.00
2018-04-28T08:54:27.525Z,23.10
2018-04-28T08:56:55.898Z,23.10
2018-04-28T08:59:42.156Z,23.10
2018-04-28T09:02:11.296Z,23.50
2018-04-28T09:04:39.696Z,23.50
2018-04-28T09:10:07.759Z,23.90
2018-04-28T09:12:36.127Z,24.10
2018-04-28T09:15:04.492Z,24.00
2018-04-28T09:17:33.251Z,24.10
2018-04-28T09:20:01.655Z,24.40
2018-04-28T09:22:34.485Z,24.40
2018-04-28T09:25:03.133Z,24.50
2018-04-28T09:27:36.370Z,24.60
2018-04-28T09:30:11.209Z,24.60
2018-04-28T09:32:46.609Z,24.80
2018-04-28T09:35:19.081Z,24.70
2018-04-28T09:37:47.589Z,24.90
2018-04-28T09:40:18.393Z,25.00
2018-04-28T09:42:53.721Z,24.80
2018-04-28T09:45:23.236Z,24.80
2018-04-28T09:47:56.798Z,24.90
2018-04-28T09:50:27.019Z,24.90
2018-04-28T09:52:56.600Z,24.90
2018-04-28T09:55:27.573Z,24.90
2018-04-28T09:58:08.041Z,25.00
2018-04-28T10:00:55.944Z,25.20
2018-04-28T10:03:30.101Z,25.20
2018-04-28T10:05:59.341Z,25.50
2018-04-28T10:08:28.425Z,25.60
2018-04-28T10:10:56.812Z,25.60
2018-04-28T10:13:25.185Z,25.40
2018-04-28T10:15:54.447Z,25.50
2018-04-28T10:18:23.052Z,25.50
2018-04-28T10:20:51.420Z,25.60
2018-04-28T10:23:19.819Z,25.80
2018-04-28T10:25:48.325Z,26.00
2018-04-28T10:28:16.738Z,26.30
2018-04-28T10:30:46.156Z,26.60
2018-04-28T10:33:14.879Z,26.60
2018-04-28T10:35:43.285Z,26.70
2018-04-28T10:38:11.648Z,26.70
2018-04-28T10:40:40.068Z,26.70
2018-04-28T10:43:09.200Z,26.90
2018-04-28T10:45:37.675Z,26.90
2018-04-28T10:48:05.997Z,27.20
2018-04-28T10:50:34.536Z,27.20
2018-04-28T10:53:02.906Z,27.40
2018-04-28T10:55:31.273Z,27.60
2018-04-28T10:57:59.784Z,27.70
2018-04-28T11:00:28.149Z,27.50
2018-04-28T11:02:56.563Z,27.50
2018-04-28T11:05:24.943Z,27.60
2018-04-28T11:07:53.497Z,27.80
2018-04-28T11:10:22.578Z,27.90
2018-04-28T11:12:50.952Z,27.80
2018-04-28T11:15:19.340Z,27.70
2018-04-28T11:17:47.734Z,27.50
2018-04-28T11:20:16.612Z,27.70
2018-04-28T11:22:44.976Z,27.90
2018-04-28T11:25:13.349Z,28.20
2018-04-28T11:27:41.744Z,28.30
2018-04-28T11:30:10.108Z,28.20
2018-04-28T11:32:38.717Z,28.40
2018-04-28T11:35:07.088Z,28.20
2018-04-28T11:37:35.469Z,28.30
2018-04-28T11:40:04.866Z,28.30
2018-04-28T11:42:33.364Z,28.10
2018-04-28T11:45:01.977Z,27.90
2018-04-28T11:47:30.421Z,27.60
2018-04-28T11:49:59.215Z,27.70
2018-04-28T11:52:28.111Z,27.70
2018-04-28T11:54:56.584Z,27.80
2018-04-28T11:57:26.089Z,27.80
2018-04-28T11:59:55.162Z,27.80
2018-04-28T12:02:24.785Z,27.90
2018-04-28T12:04:54.716Z,28.10
2018-04-28T12:07:24.587Z,28.30
2018-04-28T12:09:54.887Z,28.50
2018-04-28T12:12:24.888Z,27.80
2018-04-28T12:14:54.698Z,27.80
2018-04-28T12:17:24.185Z,27.90
2018-04-28T12:19:54.268Z,28.10
2018-04-28T12:22:24.797Z,27.80
2018-04-28T12:24:55.014Z,28.10
2018-04-28T12:27:25.297Z,28.40
2018-04-28T12:29:55.438Z,28.40
2018-04-28T12:32:25.361Z,28.50
2018-04-28T12:34:55.623Z,28.80
2018-04-28T12:37:25.493Z,28.70
2018-04-28T12:39:54.648Z,28.80
2018-04-28T12:42:23.039Z,28.80
2018-04-28T12:44:51.412Z,28.80
2018-04-28T12:47:19.801Z,28.80
2018-04-28T12:49:48.180Z,28.80
2018-04-28T12:52:16.592Z,28.80
2018-04-28T12:54:44.961Z,28.60
2018-04-28T12:57:14.116Z,28.70
2018-04-28T12:59:42.507Z,28.70
2018-04-28T13:02:10.879Z,28.80
2018-04-28T13:04:39.316Z,28.70
2018-04-28T13:07:07.703Z,28.90
2018-04-28T13:09:36.069Z,29.00
2018-04-28T13:12:04.460Z,29.20
2018-04-28T13:14:32.852Z,29.10
2018-04-28T13:17:01.622Z,28.70
2018-04-28T13:19:29.988Z,28.70
2018-04-28T13:21:58.357Z,28.90
2018-04-28T13:24:26.740Z,29.20
2018-04-28T13:26:55.169Z,29.30
2018-04-28T13:29:23.573Z,29.30
2018-04-28T13:31:52.714Z,29.00
2018-04-28T13:34:21.081Z,29.10
2018-04-28T13:36:49.481Z,28.70
2018-04-28T13:39:17.853Z,28.50
2018-04-28T13:41:46.435Z,28.80
2018-04-28T13:44:14.817Z,28.50
2018-04-28T13:46:43.196Z,28.50
2018-04-28T13:49:11.588Z,28.20
2018-04-28T13:51:39.964Z,28.10
2018-04-28T13:54:08.633Z,28.20
2018-04-28T13:56:37.000Z,29.50
2018-04-28T13:59:05.370Z,30.90
2018-04-28T14:01:33.752Z,31.80
2018-04-28T14:04:02.118Z,32.30
2018-04-28T14:06:31.549Z,33.10
2018-04-28T14:08:59.936Z,33.00
2018-04-28T14:11:28.314Z,33.50
2018-04-28T14:13:56.709Z,33.60
2018-04-28T14:16:25.106Z,33.90
2018-04-28T14:18:54.468Z,33.40
2018-04-28T14:21:22.836Z,33.30
2018-04-28T14:23:51.214Z,32.80
2018-04-28T14:26:19.605Z,32.10
2018-04-28T14:28:47.975Z,31.80
2018-04-28T14:31:16.608Z,31.30
2018-04-28T14:33:44.975Z,30.90
2018-04-28T14:36:13.345Z,30.70
2018-04-28T14:38:41.737Z,30.40
2018-04-28T14:41:10.112Z,30.10
2018-04-28T14:43:38.863Z,29.70
2018-04-28T14:46:07.257Z,29.20
2018-04-28T14:48:35.629Z,28.80
2018-04-28T14:51:04.029Z,28.50
2018-04-28T14:53:32.396Z,28.30
2018-04-28T14:56:01.060Z,28.10
2018-04-28T14:58:29.438Z,27.90
2018-04-28T15:00:57.812Z,27.60
2018-04-28T15:03:26.205Z,27.50
2018-04-28T15:05:54.577Z,27.30
2018-04-28T15:08:23.159Z,27.20
2018-04-28T15:10:51.524Z,27.10
2018-04-28T15:13:19.898Z,27.10
2018-04-28T15:15:48.299Z,27.20
2018-04-28T15:18:16.674Z,27.30
2018-04-28T15:20:45.085Z,27.30
2018-04-28T15:23:13.459Z,27.20
2018-04-28T15:25:42.051Z,27.10
2018-04-28T15:28:11.220Z,26.90
2018-04-28T15:30:39.602Z,26.80
2018-04-28T15:33:12.134Z,26.70
2018-04-28T15:35:41.178Z,26.50
2018-04-28T15:38:09.637Z,26.40
2018-04-28T15:40:38.033Z,26.30
2018-04-28T15:43:06.434Z,26.20
2018-04-28T15:45:34.878Z,26.10
2018-04-28T15:48:03.253Z,26.10
2018-04-28T15:50:31.624Z,26.00
2018-04-28T15:53:00.017Z,25.90
2018-04-28T15:55:28.409Z,25.80
2018-04-28T15:57:57.453Z,25.70
2018-04-28T16:00:29.161Z,25.60
2018-04-28T16:03:00.661Z,25.40
2018-04-28T16:05:31.373Z,25.20
2018-04-28T16:08:02.883Z,25.00
2018-04-28T16:10:32.876Z,25.00
2018-04-28T16:13:02.914Z,24.90
2018-04-28T16:15:32.469Z,24.70
2018-04-28T16:18:03.161Z,24.50
2018-04-28T16:20:33.057Z,24.50
2018-04-28T16:23:02.609Z,24.40
2018-04-28T16:25:32.350Z,24.40
2018-04-28T16:28:01.785Z,24.20
2018-04-28T16:30:32.238Z,24.10
2018-04-28T16:33:02.631Z,23.90
2018-04-28T16:35:32.216Z,23.90
2018-04-28T16:38:02.236Z,23.80
2018-04-28T16:40:31.808Z,23.80
2018-04-28T16:43:02.085Z,23.70
2018-04-28T16:45:32.290Z,23.60
2018-04-28T16:48:02.415Z,23.60
2018-04-28T16:50:32.281Z,23.50
2018-04-28T16:53:02.357Z,23.50
2018-04-28T16:55:31.991Z,23.40
2018-04-28T16:58:00.765Z,23.30
2018-04-28T17:00:31.898Z,23.20
2018-04-28T17:03:02.193Z,23.20
2018-04-28T17:05:31.790Z,23.10
2018-04-28T17:08:02.236Z,23.00
2018-04-28T17:10:32.469Z,23.00
2018-04-28T17:13:02.514Z,23.00
2018-04-28T17:15:31.893Z,22.90
2018-04-28T17:18:01.258Z,22.80
2018-04-28T17:20:32.470Z,22.70
2018-04-28T17:23:02.153Z,22.70
2018-04-28T17:25:31.467Z,22.60
2018-04-28T17:28:01.860Z,22.50
2018-04-28T17:30:30.565Z,22.50
2018-04-28T17:32:58.998Z,22.50
2018-04-28T17:35:28.209Z,22.30
2018-04-28T17:37:57.074Z,22.30
2018-04-28T17:40:26.449Z,22.10
2018-04-28T17:42:55.307Z,22.10
2018-04-28T17:45:24.081Z,22.00
2018-04-28T17:47:52.478Z,21.90
2018-04-28T17:50:20.884Z,21.80
2018-04-28T17:52:49.495Z,21.70
2018-04-28T17:55:21.114Z,21.50
2018-04-28T17:57:49.612Z,21.50
2018-04-28T18:00:18.231Z,21.40
2018-04-28T18:02:47.512Z,21.20
2018-04-28T18:05:20.101Z,21.20
2018-04-28T18:07:49.493Z,21.10
2018-04-28T18:10:19.136Z,20.80
2018-04-28T18:12:47.800Z,20.80
2018-04-28T18:15:16.186Z,20.80
2018-04-28T18:17:44.829Z,20.70
2018-04-28T18:20:14.194Z,20.60
2018-04-28T18:22:42.913Z,20.50
2018-04-28T18:25:11.797Z,20.40
2018-04-28T18:27:40.277Z,20.30
2018-04-28T18:30:08.941Z,20.20
2018-04-28T18:32:37.329Z,20.10
2018-04-28T18:35:05.724Z,20.00
2018-04-28T18:37:34.704Z,19.90
2018-04-28T18:40:03.925Z,19.70
2018-04-28T18:42:32.327Z,19.70
2018-04-28T18:45:01.902Z,19.50
2018-04-28T18:47:31.637Z,19.50
2018-04-28T18:50:00.950Z,19.40
2018-04-28T18:52:30.457Z,19.30
2018-04-28T18:54:58.904Z,19.30
2018-04-28T18:57:27.279Z,19.20
2018-04-28T18:59:55.684Z,19.20
2018-04-28T19:02:25.381Z,19.00
2018-04-28T19:04:54.203Z,18.90
2018-04-28T19:07:22.618Z,18.90
2018-04-28T19:09:51.149Z,18.90
2018-04-28T19:12:19.601Z,18.80
2018-04-28T19:14:48.290Z,18.70
2018-04-28T19:17:17.953Z,18.70
2018-04-28T19:19:47.816Z,18.60
2018-04-28T19:22:17.000Z,18.60
2018-04-28T19:24:46.168Z,18.50
2018-04-28T19:27:14.655Z,18.50
2018-04-28T19:29:43.105Z,18.40
2018-04-28T19:32:11.922Z,18.40
2018-04-28T19:34:40.356Z,18.40
2018-04-28T19:37:08.799Z,18.30
2018-04-28T19:39:37.267Z,18.30
2018-04-28T19:42:05.949Z,18.20
2018-04-28T19:44:34.573Z,18.20
2018-04-28T19:47:03.900Z,18.00
2018-04-28T19:49:32.298Z,18.00
2018-04-28T19:52:00.692Z,17.90
2018-04-28T19:54:29.533Z,17.90
2018-04-28T19:56:59.438Z,17.90
2018-04-28T19:59:28.691Z,17.80
2018-04-28T20:01:58.256Z,17.80
2018-04-28T20:04:27.094Z,17.70
2018-04-28T20:06:55.863Z,17.70
2018-04-28T20:09:24.699Z,17.70
2018-04-28T20:11:53.151Z,17.60
2018-04-28T20:14:23.795Z,17.60
2018-04-28T20:16:52.742Z,17.50
2018-04-28T20:19:21.768Z,17.40
2018-04-28T20:21:51.324Z,17.30
2018-04-28T20:24:38.713Z,17.30
2018-04-28T20:27:08.990Z,17.30
2018-04-28T20:29:37.595Z,17.20
2018-04-28T20:32:07.552Z,17.20
2018-04-28T20:34:38.189Z,17.10
2018-04-28T20:37:06.814Z,17.10
2018-04-28T20:39:35.511Z,17.00
2018-04-28T20:42:03.949Z,17.00
2018-04-28T20:44:32.581Z,17.00
2018-04-28T20:47:01.366Z,17.00
2018-04-28T20:49:30.617Z,17.00
2018-04-28T20:51:59.553Z,16.90
2018-04-28T20:54:28.345Z,16.90
2018-04-28T20:56:58.693Z,16.90
2018-04-28T20:59:27.175Z,16.90
2018-04-28T21:01:56.397Z,16.90
2018-04-28T21:04:25.228Z,16.80
2018-04-28T21:06:53.669Z,16.90
2018-04-28T21:09:22.090Z,16.80
2018-04-28T21:11:50.497Z,16.80
2018-04-28T21:14:19.019Z,16.70
2018-04-28T21:16:47.404Z,16.70
2018-04-28T21:19:16.443Z,16.70
2018-04-28T21:21:45.101Z,16.50
2018-04-28T21:24:13.486Z,16.50
2018-04-28T21:26:42.019Z,16.40
2018-04-28T21:29:11.270Z,16.30
2018-04-28T21:31:39.982Z,16.30
2018-04-28T21:34:08.413Z,16.30
2018-04-28T21:36:37.021Z,16.20
2018-04-28T21:39:06.293Z,16.20
2018-04-28T21:41:34.683Z,16.20
2018-04-28T21:44:03.090Z,16.10
2018-04-28T21:46:31.531Z,16.10
2018-04-28T21:49:07.070Z,16.00
2018-04-28T21:51:39.055Z,15.90
2018-04-28T21:54:10.003Z,15.90
2018-04-28T21:56:40.940Z,15.80
2018-04-28T21:59:11.398Z,15.70
2018-04-28T22:01:41.488Z,15.70
2018-04-28T22:04:11.364Z,15.60
2018-04-28T22:06:41.804Z,15.50
2018-04-28T22:09:11.558Z,15.40
2018-04-28T22:11:41.788Z,15.40
2018-04-28T22:14:11.342Z,15.30
2018-04-28T22:16:39.739Z,15.20
2018-04-28T22:19:08.117Z,15.20
2018-04-28T22:21:36.533Z,15.10
2018-04-28T22:24:04.909Z,15.10
2018-04-28T22:26:33.372Z,15.10
2018-04-28T22:29:01.708Z,15.10
2018-04-28T22:31:30.311Z,15.00
2018-04-28T22:33:58.687Z,15.00
2018-04-28T22:36:27.071Z,15.00
2018-04-28T22:38:55.496Z,14.90
2018-04-28T22:41:24.642Z,14.80
2018-04-28T22:43:54.383Z,14.80
2018-04-28T22:46:24.629Z,14.70
2018-04-28T22:48:53.369Z,14.70
2018-04-28T22:51:21.799Z,14.60
2018-04-28T22:53:50.945Z,14.60
2018-04-28T22:56:19.349Z,14.50
2018-04-28T22:58:47.880Z,14.50
2018-04-28T23:01:16.284Z,14.40
2018-04-28T23:03:44.672Z,14.30
2018-04-28T23:06:13.566Z,14.30
2018-04-28T23:08:41.961Z,14.20
2018-04-28T23:11:10.414Z,14.20
2018-04-28T23:13:38.896Z,14.20
2018-04-28T23:16:07.272Z,14.20
2018-04-28T23:18:35.677Z,14.10
2018-04-28T23:21:04.131Z,14.10
2018-04-28T23:23:32.849Z,14.00
2018-04-28T23:26:01.224Z,13.90
2018-04-28T23:28:29.610Z,13.80
2018-04-28T23:30:58.006Z,13.70
2018-04-28T23:33:27.152Z,13.60
2018-04-28T23:35:55.552Z,13.60
2018-04-28T23:38:23.935Z,13.60
2018-04-28T23:40:52.797Z,13.60
2018-04-28T23:43:21.180Z,13.60
2018-04-28T23:45:49.564Z,13.60
2018-04-28T23:48:17.964Z,13.60
2018-04-28T23:50:46.344Z,13.50
2018-04-28T23:53:14.746Z,13.50
2018-04-28T23:55:43.884Z,13.40
2018-04-28T23:58:12.265Z,13.40
